Time;durP1;ratioP1;P1;durP2;ratioP2;P2;SDS_P1;SDS_P2;PMS_P1;PMS_P2;Temp;Humidity;BMP_temperature;BMP_pressure;BME280_temperature;BME280_humidity;BME280_pressure;Samples;Min_cycle;Max_cycle;Signal;HPM_P1;HPM_P2
2023/03/11 00:00:11;;;;;;;7.53;2.50;;;;;;;0.22;100.00;99721.81;694374;28;1489;-61
2023/03/11 00:00:35;;;;;;;6.90;2.10;;;;;;;0.15;100.00;99725.09;696831;28;1412;-63
2023/03/11 00:00:56;;;;;;;6.53;2.00;;;;;;;0.21;100.00;99729.50;696283;28;4547;-64
2023/03/11 00:01:16;;;;;;;8.30;2.35;;;;;;;0.21;100.00;99735.53;696563;28;1380;-64
2023/03/11 00:01:39;;;;;;;7.77;2.47;;;;;;;0.18;100.00;99727.78;696937;28;1261;-63
2023/03/11 00:02:00;;;;;;;5.95;2.13;;;;;;;0.19;100.00;99729.47;698213;28;1317;-63
2023/03/11 00:02:20;;;;;;;7.50;2.60;;;;;;;0.17;100.00;99738.88;697188;28;1660;-64
2023/03/11 00:02:42;;;;;;;8.10;2.67;;;;;;;0.14;100.00;99729.38;697612;28;1188;-61
2023/03/11 00:03:05;;;;;;;6.30;2.20;;;;;;;0.12;100.00;99730.19;696489;28;1183;-63
2023/03/11 00:03:27;;;;;;;5.72;2.42;;;;;;;0.06;100.00;99733.47;695284;28;1068;-63
2023/03/11 00:03:48;;;;;;;6.50;2.30;;;;;;;0.07;100.00;99734.34;694940;28;1131;-64
2023/03/11 00:04:08;;;;;;;7.32;2.28;;;;;;;0.10;100.00;99737.88;693428;28;4506;-62
2023/03/11 00:04:28;;;;;;;7.50;2.20;;;;;;;0.10;100.00;99740.44;697249;28;998;-62
2023/03/11 00:04:49;;;;;;;8.00;2.50;;;;;;;0.10;100.00;99747.28;696212;28;1257;-62
2023/03/11 00:05:15;;;;;;;7.43;2.50;;;;;;;0.09;100.00;99735.25;695885;28;1205;-64
2023/03/11 00:05:38;;;;;;;6.38;2.47;;;;;;;0.11;100.00;99734.47;692114;28;2127;-64
2023/03/11 00:06:00;;;;;;;7.65;2.50;;;;;;;0.12;100.00;99740.47;693790;28;1236;-63
2023/03/11 00:06:21;;;;;;;8.32;2.50;;;;;;;0.09;100.00;99745.53;694421;28;1249;-63
2023/03/11 00:06:41;;;;;;;8.17;2.47;;;;;;;0.14;100.00;99736.25;691699;28;1333;-63
2023/03/11 00:07:08;;;;;;;8.82;2.50;;;;;;;0.12;100.00;99748.16;688317;28;4437;-63
2023/03/11 00:07:29;;;;;;;8.15;2.60;;;;;;;0.14;100.00;99741.38;691513;28;1080;-63
2023/03/11 00:07:50;;;;;;;9.37;2.70;;;;;;;0.16;100.00;99745.69;690226;28;1576;-63
2023/03/11 00:08:13;;;;;;;9.35;2.42;;;;;;;0.11;100.00;99738.72;689503;28;1133;-63
2023/03/11 00:08:34;;;;;;;8.52;2.60;;;;;;;0.09;100.00;99740.41;690973;28;1260;-63
2023/03/11 00:08:54;;;;;;;6.68;2.30;;;;;;;0.11;100.00;99747.31;693661;28;1241;-63
2023/03/11 00:09:15;;;;;;;7.17;2.77;;;;;;;0.14;100.00;99749.94;695709;28;1154;-63
2023/03/11 00:09:36;;;;;;;7.37;2.40;;;;;;;0.23;100.00;99746.72;692453;28;1241;-62
2023/03/11 00:09:57;;;;;;;8.63;2.60;;;;;;;0.17;100.00;99749.16;693659;28;4767;-62
2023/03/11 00:10:24;;;;;;;6.80;2.53;;;;;;;0.14;100.00;99743.97;692026;28;2247;-62
2023/03/11 00:10:47;;;;;;;8.85;2.20;;;;;;;0.13;100.00;99748.19;693586;28;1073;-63
2023/03/11 00:11:08;;;;;;;6.65;2.30;;;;;;;0.10;100.00;99742.16;688508;28;1259;-63
2023/03/11 00:11:28;;;;;;;7.30;2.17;;;;;;;0.12;100.00;99750.75;688931;28;1128;-63
2023/03/11 00:11:48;;;;;;;9.32;2.47;;;;;;;0.11;100.00;99741.28;690362;28;1306;-64
2023/03/11 00:12:09;;;;;;;5.90;1.90;;;;;;;0.09;100.00;99746.41;693459;28;1365;-60
2023/03/11 00:12:29;;;;;;;5.38;1.90;;;;;;;0.08;100.00;99749.78;694499;28;1250;-62
2023/03/11 00:12:50;;;;;;;7.20;2.30;;;;;;;0.07;100.00;99749.75;694864;28;1266;-61
2023/03/11 00:13:12;;;;;;;7.90;2.22;;;;;;;0.07;100.00;99753.22;693864;28;4539;-65
2023/03/11 00:13:35;;;;;;;9.98;2.50;;;;;;;0.05;100.00;99760.00;697995;28;1293;-61
2023/03/11 00:13:56;;;;;;;9.55;2.60;;;;;;;0.08;100.00;99747.22;696584;28;1214;-62
2023/03/11 00:14:16;;;;;;;7.82;2.45;;;;;;;0.11;100.00;99751.56;694747;28;1475;-61
2023/03/11 00:14:36;;;;;;;8.63;2.67;;;;;;;0.08;100.00;99754.06;694725;28;1274;-62
2023/03/11 00:14:57;;;;;;;8.27;2.45;;;;;;;0.11;100.00;99754.13;695633;28;1226;-61
2023/03/11 00:15:18;;;;;;;7.93;2.47;;;;;;;0.15;100.00;99750.81;695121;28;1226;-61
2023/03/11 00:15:40;;;;;;;8.90;2.60;;;;;;;0.10;100.00;99757.56;695895;28;1151;-64
2023/03/11 00:16:00;;;;;;;7.35;2.47;;;;;;;0.08;100.00;99743.78;694962;28;4701;-60
2023/03/11 00:16:21;;;;;;;8.67;2.70;;;;;;;0.12;100.00;99755.88;697079;28;1162;-66
2023/03/11 00:16:44;;;;;;;6.85;2.45;;;;;;;0.12;100.00;99755.88;693719;28;1135;-60
2023/03/11 00:17:04;;;;;;;7.28;2.33;;;;;;;0.16;100.00;99753.41;694641;28;1128;-62
2023/03/11 00:17:25;;;;;;;8.05;2.40;;;;;;;0.20;100.00;99750.94;692961;28;1246;-62
2023/03/11 00:17:47;;;;;;;6.93;2.60;;;;;;;0.17;100.00;99750.00;692155;28;1219;-62
2023/03/11 00:18:07;;;;;;;8.25;2.35;;;;;;;0.13;100.00;99753.34;690656;28;1111;-62
2023/03/11 00:18:30;;;;;;;8.10;2.50;;;;;;;0.10;100.00;99765.28;690551;28;1096;-62
2023/03/11 00:18:51;;;;;;;7.35;2.80;;;;;;;0.13;100.00;99762.78;693595;28;1264;-60
2023/03/11 00:19:12;;;;;;;5.85;2.05;;;;;;;0.14;100.00;99762.81;693178;28;4352;-60
2023/03/11 00:19:32;;;;;;;9.18;2.38;;;;;;;0.19;100.00;99760.31;691770;28;1253;-64
2023/03/11 00:19:52;;;;;;;7.50;2.40;;;;;;;0.15;100.00;99749.13;693511;28;1092;-62
2023/03/11 00:20:22;;;;;;;4.82;2.33;;;;;;;0.16;100.00;99762.84;692771;28;1183;-62
2023/03/11 00:20:45;;;;;;;7.32;2.20;;;;;;;0.19;100.00;99755.19;692757;28;1528;-62
2023/03/11 00:21:15;;;;;;;7.47;2.20;;;;;;;0.11;100.00;99760.16;693995;28;1124;-62
2023/03/11 00:21:35;;;;;;;7.03;2.83;;;;;;;0.09;100.00;99756.69;695531;28;1126;-62
2023/03/11 00:21:56;;;;;;;7.82;2.70;;;;;;;0.22;100.00;99762.97;695689;28;4485;-61
2023/03/11 00:22:20;;;;;;;9.07;2.42;;;;;;;0.23;100.00;99758.72;696506;28;1241;-62
2023/03/11 00:22:40;;;;;;;9.50;2.72;;;;;;;0.26;100.00;99761.34;698459;28;1096;-61
2023/03/11 00:23:02;;;;;;;7.95;2.53;;;;;;;0.30;100.00;99763.13;698740;28;1229;-61
2023/03/11 00:23:23;;;;;;;6.82;2.30;;;;;;;0.30;100.00;99763.13;698874;28;1413;-62
2023/03/11 00:23:47;;;;;;;7.50;2.60;;;;;;;0.29;100.00;99766.53;696537;28;1230;-62
2023/03/11 00:24:08;;;;;;;9.48;2.50;;;;;;;0.33;100.00;99766.66;696615;28;1143;-62
2023/03/11 00:24:28;;;;;;;8.90;2.73;;;;;;;0.30;100.00;99763.13;698670;28;1118;-62
2023/03/11 00:24:48;;;;;;;7.38;2.40;;;;;;;0.29;100.00;99764.84;697561;28;993;-61
2023/03/11 00:25:11;;;;;;;6.67;2.30;;;;;;;0.26;100.00;99764.75;695942;28;4612;-62
2023/03/11 00:25:36;;;;;;;6.95;2.30;;;;;;;0.22;100.00;99767.25;693442;28;1369;-62
2023/03/11 00:26:01;;;;;;;7.63;2.40;;;;;;;0.27;100.00;99768.22;698069;28;1321;-61
2023/03/11 00:26:22;;;;;;;8.13;2.47;;;;;;;0.26;100.00;99759.63;692130;28;2067;-61
2023/03/11 00:26:42;;;;;;;8.23;2.53;;;;;;;0.23;100.00;99767.28;691868;28;1113;-62
2023/03/11 00:27:03;;;;;;;7.72;2.40;;;;;;;0.22;100.00;99767.25;692090;28;1345;-62
2023/03/11 00:27:24;;;;;;;7.43;2.10;;;;;;;0.27;100.00;99766.50;692956;28;1151;-62
2023/03/11 00:27:44;;;;;;;6.88;2.30;;;;;;;0.27;100.00;99766.50;693279;28;1183;-63
2023/03/11 00:28:09;;;;;;;8.43;2.47;;;;;;;0.29;100.00;99774.25;690002;28;4387;-61
2023/03/11 00:28:30;;;;;;;6.72;2.30;;;;;;;0.29;100.00;99767.44;687890;28;2116;-62
2023/03/11 00:28:51;;;;;;;6.77;2.40;;;;;;;0.32;100.00;99769.19;688641;28;1251;-62
2023/03/11 00:29:11;;;;;;;6.17;2.20;;;;;;;0.32;100.00;99771.78;690068;28;1145;-61
2023/03/11 00:29:31;;;;;;;7.53;2.28;;;;;;;0.28;100.00;99773.41;689823;28;1416;-60
2023/03/11 00:29:52;;;;;;;12.83;2.80;;;;;;;0.28;100.00;99770.81;689872;28;1155;-62
2023/03/11 00:30:14;;;;;;;8.93;2.60;;;;;;;0.22;100.00;99772.38;691787;28;1990;-63
2023/03/11 00:30:34;;;;;;;9.98;2.90;;;;;;;0.23;100.00;99774.97;696043;28;1159;-62
2023/03/11 00:30:55;;;;;;;6.90;2.15;;;;;;;0.23;100.00;99777.56;696510;28;4510;-62
2023/03/11 00:31:15;;;;;;;8.20;2.42;;;;;;;0.19;100.00;99775.75;694724;28;1306;-62
2023/03/11 00:31:36;;;;;;;7.30;2.40;;;;;;;0.17;100.00;99774.84;696923;28;1194;-61
2023/03/11 00:31:56;;;;;;;7.05;2.33;;;;;;;0.20;100.00;99772.34;693780;28;1479;-62
2023/03/11 00:32:17;;;;;;;7.63;2.43;;;;;;;0.21;100.00;99781.81;693729;28;1456;-62
2023/03/11 00:32:38;;;;;;;9.00;2.45;;;;;;;0.23;100.00;99785.25;692821;28;1333;-62
2023/03/11 00:32:58;;;;;;;8.43;2.60;;;;;;;0.32;100.00;99772.63;690717;28;1414;-60
2023/03/11 00:33:22;;;;;;;8.15;2.45;;;;;;;0.22;100.00;99778.38;689367;28;1224;-62
2023/03/11 00:33:43;;;;;;;9.02;2.40;;;;;;;0.15;100.00;99776.50;689500;28;1319;-61
2023/03/11 00:34:06;;;;;;;9.20;2.40;;;;;;;0.16;100.00;99780.81;688534;28;4353;-61
2023/03/11 00:34:27;;;;;;;6.88;2.20;;;;;;;0.17;100.00;99774.84;690311;28;1247;-62
2023/03/11 00:34:47;;;;;;;7.40;2.37;;;;;;;0.14;100.00;99783.38;690665;28;1310;-61
2023/03/11 00:35:13;;;;;;;8.50;2.60;;;;;;;0.14;100.00;99785.94;694758;28;1397;-62
2023/03/11 00:35:34;;;;;;;9.65;2.80;;;;;;;0.14;100.00;99785.94;695647;28;1431;-62
2023/03/11 00:35:54;;;;;;;6.57;2.58;;;;;;;0.16;100.00;99785.97;699249;28;1289;-61
2023/03/11 00:36:30;;;;;;;7.37;2.50;;;;;;;0.19;100.00;99793.75;697979;28;1301;-62
2023/03/11 00:36:50;;;;;;;7.53;2.35;;;;;;;0.14;100.00;99785.94;700013;28;1340;-62
2023/03/11 00:37:11;;;;;;;7.32;2.63;;;;;;;0.19;100.00;99798.03;696308;28;4355;-61
2023/03/11 00:37:31;;;;;;;6.57;2.50;;;;;;;0.17;100.00;99790.28;698616;28;1143;-60
2023/03/11 00:37:55;;;;;;;7.05;2.70;;;;;;;0.23;100.00;99790.41;698111;28;1505;-61
2023/03/11 00:38:16;;;;;;;5.80;2.53;;;;;;;0.28;100.00;99781.09;694949;28;1389;-60
2023/03/11 00:38:38;;;;;;;6.53;2.28;;;;;;;0.22;100.00;99791.22;693137;28;1294;-60
2023/03/11 00:39:00;;;;;;;7.72;2.50;;;;;;;0.24;100.00;99792.16;693311;28;1290;-61
2023/03/11 00:39:24;;;;;;;7.10;3.17;;;;;;;0.23;100.00;99787.84;693639;28;1124;-61
2023/03/11 00:39:44;;;;;;;6.65;2.63;;;;;;;0.24;100.00;99787.00;694654;28;1281;-61
2023/03/11 00:40:07;;;;;;;7.73;2.60;;;;;;;0.25;100.00;99793.91;694994;28;4296;-61
2023/03/11 00:40:31;;;;;;;9.27;2.80;;;;;;;0.24;100.00;99792.16;696214;28;1285;-61
2023/03/11 00:40:51;;;;;;;6.30;2.47;;;;;;;0.24;100.00;99797.28;691184;28;1405;-62
2023/03/11 00:41:12;;;;;;;7.10;2.42;;;;;;;0.21;100.00;99791.19;692700;28;1127;-62
2023/03/11 00:41:33;;;;;;;8.10;2.60;;;;;;;0.19;100.00;99793.75;691371;28;1246;-63
2023/03/11 00:41:55;;;;;;;7.47;2.50;;;;;;;0.19;100.00;99793.75;690646;28;1284;-62
2023/03/11 00:42:15;;;;;;;8.43;2.60;;;;;;;0.15;100.00;99797.06;692507;28;1401;-62
2023/03/11 00:42:36;;;;;;;7.10;2.57;;;;;;;0.13;100.00;99797.03;695558;28;1408;-62
2023/03/11 00:42:57;;;;;;;7.75;2.70;;;;;;;0.16;100.00;99802.25;695054;28;4373;-62
2023/03/11 00:43:17;;;;;;;8.70;2.70;;;;;;;0.15;100.00;99794.50;698351;28;1577;-62
2023/03/11 00:43:38;;;;;;;7.90;2.50;;;;;;;0.14;100.00;99795.34;696306;28;1155;-63
2023/03/11 00:43:58;;;;;;;9.00;2.47;;;;;;;0.10;100.00;99799.53;694785;28;1122;-62
2023/03/11 00:44:19;;;;;;;8.57;2.53;;;;;;;0.08;100.00;99798.63;695948;28;1354;-62
2023/03/11 00:44:39;;;;;;;7.25;2.55;;;;;;;0.06;100.00;99804.59;695983;28;1229;-63
2023/03/11 00:45:00;;;;;;;7.17;2.70;;;;;;;0.06;100.00;99800.31;697028;28;1257;-62
2023/03/11 00:45:21;;;;;;;8.00;2.92;;;;;;;0.15;100.00;99800.53;694166;28;1111;-61
2023/03/11 00:45:44;;;;;;;8.73;3.42;;;;;;;0.15;100.00;99797.06;695244;28;1083;-61
2023/03/11 00:46:05;;;;;;;6.05;2.40;;;;;;;0.14;100.00;99803.06;690088;28;4517;-62
2023/03/11 00:46:27;;;;;;;6.37;2.40;;;;;;;0.20;100.00;99795.50;693152;28;1212;-62
2023/03/11 00:46:47;;;;;;;5.45;2.40;;;;;;;0.21;100.00;99798.91;694287;28;1155;-63
2023/03/11 00:47:10;;;;;;;6.18;2.50;;;;;;;0.17;100.00;99800.56;692824;28;1496;-63
2023/03/11 00:47:30;;;;;;;6.60;2.50;;;;;;;0.23;100.00;99799.84;694116;28;1143;-61
2023/03/11 00:47:52;;;;;;;8.33;2.77;;;;;;;0.18;100.00;99802.31;695319;28;5147;-62
2023/03/11 00:48:15;;;;;;;8.75;2.92;;;;;;;0.20;100.00;99795.50;696846;28;1130;-63
2023/03/11 00:48:36;;;;;;;7.22;2.45;;;;;;;0.16;100.00;99799.69;695457;28;1437;-61
2023/03/11 00:48:56;;;;;;;7.20;2.35;;;;;;;0.24;100.00;99792.16;695881;28;4475;-61
2023/03/11 00:49:17;;;;;;;6.83;2.43;;;;;;;0.23;100.00;99795.56;691962;28;1524;-62
2023/03/11 00:49:37;;;;;;;7.65;2.65;;;;;;;0.16;100.00;99798.81;690062;28;1451;-63
2023/03/11 00:49:58;;;;;;;7.82;2.42;;;;;;;0.24;100.00;99799.00;689590;28;1286;-61
2023/03/11 00:50:22;;;;;;;6.77;2.47;;;;;;;0.19;100.00;99804.03;687111;28;1910;-62
2023/03/11 00:50:43;;;;;;;5.70;2.50;;;;;;;0.22;100.00;99800.66;689412;28;1130;-61
2023/03/11 00:51:06;;;;;;;6.40;2.40;;;;;;;0.24;100.00;99801.59;686661;28;1100;-62
2023/03/11 00:51:27;;;;;;;7.18;2.58;;;;;;;0.18;100.00;99802.31;688181;28;1262;-61
2023/03/11 00:51:47;;;;;;;7.95;2.72;;;;;;;0.18;100.00;99802.31;688251;28;1359;-62
2023/03/11 00:52:07;;;;;;;8.63;2.60;;;;;;;0.14;100.00;99801.34;688258;28;4379;-61
2023/03/11 00:52:28;;;;;;;9.23;2.40;;;;;;;0.11;100.00;99803.88;689916;28;1137;-61
2023/03/11 00:52:50;;;;;;;7.30;2.42;;;;;;;0.09;100.00;99802.09;690577;28;1223;-61
2023/03/11 00:53:11;;;;;;;9.98;3.22;;;;;;;0.14;100.00;99806.50;691076;28;1306;-61
2023/03/11 00:53:34;;;;;;;11.05;3.13;;;;;;;0.19;100.00;99806.59;690345;28;1310;-61
2023/03/11 00:53:59;;;;;;;7.22;2.60;;;;;;;0.19;100.00;99809.16;688842;28;1228;-61
2023/03/11 00:54:20;;;;;;;6.70;2.50;;;;;;;0.14;100.00;99801.34;687830;28;1389;-62
2023/03/11 00:54:40;;;;;;;5.85;2.35;;;;;;;0.20;100.00;99802.34;692166;28;1660;-61
2023/03/11 00:55:01;;;;;;;7.73;2.70;;;;;;;0.23;100.00;99794.69;693057;28;4509;-61
2023/03/11 00:55:30;;;;;;;7.80;2.58;;;;;;;0.21;100.00;99807.50;692807;28;1174;-61
2023/03/11 00:55:52;;;;;;;8.23;2.50;;;;;;;0.18;100.00;99804.88;691404;28;1778;-61
2023/03/11 00:56:14;;;;;;;7.20;2.50;;;;;;;0.18;100.00;99812.59;691840;28;1168;-61
2023/03/11 00:56:35;;;;;;;6.50;2.40;;;;;;;0.21;100.00;99802.38;689665;28;1441;-61
2023/03/11 00:56:56;;;;;;;8.75;2.50;;;;;;;0.16;100.00;99806.53;688459;28;1259;-62
2023/03/11 00:57:19;;;;;;;6.57;2.60;;;;;;;0.11;100.00;99806.44;687358;28;1444;-61
2023/03/11 00:57:40;;;;;;;6.80;2.70;;;;;;;0.14;100.00;99813.34;690460;28;1083;-62
2023/03/11 00:58:04;;;;;;;7.55;2.85;;;;;;;0.10;100.00;99807.25;688721;28;4434;-62
2023/03/11 00:58:32;;;;;;;10.45;2.80;;;;;;;0.18;100.00;99807.44;688888;28;1432;-61
2023/03/11 00:58:52;;;;;;;7.25;2.75;;;;;;;0.22;100.00;99816.09;693388;28;1318;-61
2023/03/11 00:59:12;;;;;;;6.50;2.57;;;;;;;0.21;100.00;99806.63;689020;28;1289;-61
2023/03/11 00:59:34;;;;;;;7.25;2.65;;;;;;;0.17;100.00;99818.56;690342;28;1317;-61
2023/03/11 00:59:55;;;;;;;7.90;2.75;;;;;;;0.13;100.00;99812.47;689841;28;1204;-61
2023/03/11 01:00:17;;;;;;;8.02;2.58;;;;;;;0.11;100.00;99818.41;687189;28;1397;-61
2023/03/11 01:00:38;;;;;;;10.07;2.58;;;;;;;0.12;100.00;99815.00;689249;28;1349;-61
2023/03/11 01:00:59;;;;;;;6.22;2.20;;;;;;;0.14;100.00;99813.34;690297;28;4466;-61
2023/03/11 01:01:19;;;;;;;6.07;2.60;;;;;;;0.11;100.00;99809.00;689664;28;1184;-61
2023/03/11 01:01:40;;;;;;;8.88;2.75;;;;;;;0.17;100.00;99816.00;690435;28;1302;-61
2023/03/11 01:02:00;;;;;;;9.35;3.03;;;;;;;0.19;100.00;99813.44;688947;28;1239;-63
2023/03/11 01:02:22;;;;;;;8.63;2.50;;;;;;;0.19;100.00;99813.44;689120;28;1203;-60
2023/03/11 01:02:42;;;;;;;8.48;2.60;;;;;;;0.18;100.00;99817.72;689765;28;1128;-61
2023/03/11 01:03:03;;;;;;;7.30;2.93;;;;;;;0.19;100.00;99814.31;689007;28;1151;-61
2023/03/11 01:03:23;;;;;;;7.53;2.65;;;;;;;0.18;100.00;99817.72;690501;28;1329;-61
2023/03/11 01:03:44;;;;;;;7.50;2.60;;;;;;;0.22;100.00;99819.50;692897;28;1440;-62
2023/03/11 01:04:05;;;;;;;8.10;2.50;;;;;;;0.21;100.00;99822.06;693534;28;4481;-61
2023/03/11 01:04:25;;;;;;;8.23;2.40;;;;;;;0.14;100.00;99821.91;688645;28;1513;-63
2023/03/11 01:04:46;;;;;;;9.23;2.50;;;;;;;0.18;100.00;99817.72;688392;28;1402;-61
2023/03/11 01:05:09;;;;;;;7.50;2.53;;;;;;;0.18;100.00;99820.31;692189;28;1258;-60
2023/03/11 01:05:32;;;;;;;8.10;2.40;;;;;;;0.22;100.00;99824.66;690671;28;1186;-60
2023/03/11 01:05:53;;;;;;;6.70;2.25;;;;;;;0.26;100.00;99820.47;692918;28;1504;-61
2023/03/11 01:06:13;;;;;;;8.03;2.33;;;;;;;0.35;100.00;99823.25;697943;28;1142;-61
2023/03/11 01:06:37;;;;;;;7.57;2.28;;;;;;;0.36;100.00;99821.53;692964;28;1317;-60
2023/03/11 01:06:57;;;;;;;6.85;2.30;;;;;;;0.31;100.00;99822.31;693278;28;4429;-61
2023/03/11 01:07:18;;;;;;;7.40;2.67;;;;;;;0.31;100.00;99819.75;692581;28;1258;-60
2023/03/11 01:07:38;;;;;;;8.20;2.53;;;;;;;0.28;100.00;99826.53;694419;28;1083;-61
2023/03/11 01:08:00;;;;;;;6.73;2.40;;;;;;;0.22;100.00;99823.78;692224;28;1223;-60
2023/03/11 01:08:20;;;;;;;8.38;2.58;;;;;;;0.23;100.00;99825.53;693630;28;1162;-61
2023/03/11 01:08:41;;;;;;;7.10;2.50;;;;;;;0.28;100.00;99829.97;695016;28;1255;-61
2023/03/11 01:09:03;;;;;;;8.57;3.40;;;;;;;0.29;100.00;99829.13;694224;28;1348;-61
2023/03/11 01:09:24;;;;;;;7.57;2.50;;;;;;;0.28;100.00;99824.81;693955;28;1047;-61
2023/03/11 01:09:44;;;;;;;6.57;2.37;;;;;;;0.32;100.00;99829.19;693769;28;1302;-61
2023/03/11 01:10:08;;;;;;;7.72;2.25;;;;;;;0.23;100.00;99836.69;692161;28;4454;-62
2023/03/11 01:10:30;;;;;;;6.43;2.38;;;;;;;0.16;100.00;99835.66;694229;28;1247;-61
2023/03/11 01:10:51;;;;;;;5.43;2.28;;;;;;;0.16;100.00;99832.22;696411;28;1308;-61
2023/03/11 01:11:13;;;;;;;7.22;2.42;;;;;;;0.25;100.00;99831.56;697439;28;1265;-61
2023/03/11 01:11:34;;;;;;;9.43;2.90;;;;;;;0.21;100.00;99830.66;697196;28;1186;-61
2023/03/11 01:11:54;;;;;;;6.82;2.47;;;;;;;0.23;100.00;99831.53;695796;28;1226;-61
2023/03/11 01:12:15;;;;;;;6.67;2.20;;;;;;;0.20;100.00;99833.19;696906;28;1305;-62
2023/03/11 01:12:35;;;;;;;6.43;2.10;;;;;;;0.24;100.00;99828.16;696891;28;1377;-61
2023/03/11 01:12:56;;;;;;;5.40;2.20;;;;;;;0.23;100.00;99836.69;696643;28;4505;-61
2023/03/11 01:13:16;;;;;;;5.68;1.90;;;;;;;0.22;100.00;99829.78;694254;28;1361;-62
2023/03/11 01:13:38;;;;;;;7.07;2.10;;;;;;;0.16;100.00;99837.38;691125;28;1360;-61
2023/03/11 01:14:03;;;;;;;6.05;2.00;;;;;;;0.14;100.00;99828.78;690423;28;1190;-60
2023/03/11 01:14:23;;;;;;;4.25;1.70;;;;;;;0.10;100.00;99829.53;688590;28;1258;-60
2023/03/11 01:14:44;;;;;;;5.30;2.00;;;;;;;0.11;100.00;99827.00;686767;28;1408;-60
2023/03/11 01:15:06;;;;;;;6.53;1.83;;;;;;;0.16;100.00;99827.09;688045;28;1132;-62
2023/03/11 01:15:34;;;;;;;7.80;2.08;;;;;;;0.17;100.00;99832.25;692696;28;1238;-61
2023/03/11 01:15:55;;;;;;;5.85;1.85;;;;;;;0.24;100.00;99838.44;695582;28;4679;-62
2023/03/11 01:16:16;;;;;;;6.28;2.00;;;;;;;0.22;100.00;99832.38;694789;28;1349;-63
2023/03/11 01:16:36;;;;;;;5.60;2.08;;;;;;;0.21;100.00;99832.34;690429;28;1243;-62
2023/03/11 01:16:56;;;;;;;6.27;2.00;;;;;;;0.19;100.00;99824.59;689687;28;1440;-62
2023/03/11 01:17:17;;;;;;;6.70;2.00;;;;;;;0.18;100.00;99833.16;687048;28;1671;-62
2023/03/11 01:17:37;;;;;;;6.77;1.83;;;;;;;0.16;100.00;99835.66;687391;28;1420;-62
2023/03/11 01:17:58;;;;;;;5.53;1.73;;;;;;;0.23;100.00;99833.25;684804;28;1592;-61
2023/03/11 01:18:19;;;;;;;5.40;1.80;;;;;;;0.30;100.00;99832.56;684793;28;1124;-61
2023/03/11 01:18:40;;;;;;;6.27;1.87;;;;;;;0.25;100.00;99831.56;688257;28;1496;-62
2023/03/11 01:19:00;;;;;;;5.47;1.73;;;;;;;0.33;100.00;99828.38;683842;28;4325;-59
2023/03/11 01:19:20;;;;;;;5.03;1.70;;;;;;;0.32;100.00;99829.19;687521;28;1154;-60
2023/03/11 01:19:41;;;;;;;5.70;1.70;;;;;;;0.37;100.00;99823.28;689046;28;1101;-60
2023/03/11 01:20:05;;;;;;;5.07;2.00;;;;;;;0.27;100.00;99833.34;695116;28;1154;-61
2023/03/11 01:20:28;;;;;;;5.78;2.00;;;;;;;0.23;100.00;99826.41;694976;28;1230;-60
2023/03/11 01:20:49;;;;;;;7.28;1.98;;;;;;;0.31;100.00;99829.16;696517;28;1142;-59
2023/03/11 01:21:12;;;;;;;7.63;2.42;;;;;;;0.23;100.00;99834.09;696821;28;1182;-61
2023/03/11 01:21:32;;;;;;;6.88;2.22;;;;;;;0.14;100.00;99832.19;695964;28;1373;-61
2023/03/11 01:21:53;;;;;;;6.95;1.95;;;;;;;0.09;100.00;99838.91;696347;28;1602;-60
2023/03/11 01:22:14;;;;;;;8.60;1.87;;;;;;;0.08;100.00;99836.31;695666;28;4242;-61
2023/03/11 01:22:34;;;;;;;8.50;2.25;;;;;;;0.07;100.00;99838.03;697145;28;1309;-60
2023/03/11 01:22:56;;;;;;;6.72;2.13;;;;;;;0.13;100.00;99845.03;695474;28;1491;-60
2023/03/11 01:23:17;;;;;;;6.15;1.88;;;;;;;0.16;100.00;99839.94;694436;28;1427;-60
2023/03/11 01:23:39;;;;;;;5.03;1.80;;;;;;;0.19;100.00;99834.00;692024;28;1779;-61
2023/03/11 01:23:59;;;;;;;5.10;1.95;;;;;;;0.17;100.00;99831.41;690944;28;2008;-61
2023/03/11 01:24:20;;;;;;;7.23;2.00;;;;;;;0.13;100.00;99835.59;691100;28;1045;-61
2023/03/11 01:24:43;;;;;;;9.32;2.38;;;;;;;0.09;100.00;99838.91;690944;28;1108;-61
2023/03/11 01:25:04;;;;;;;5.97;1.80;;;;;;;0.12;100.00;99838.13;688999;28;4532;-61
2023/03/11 01:25:25;;;;;;;8.15;1.98;;;;;;;0.11;100.00;99833.81;687073;28;1421;-60
2023/03/11 01:25:45;;;;;;;6.38;1.83;;;;;;;0.16;100.00;99839.94;687974;28;1168;-60
2023/03/11 01:26:06;;;;;;;7.13;1.97;;;;;;;0.13;100.00;99838.16;689885;28;1306;-61
2023/03/11 01:26:26;;;;;;;5.60;1.98;;;;;;;0.13;100.00;99840.75;687366;28;1169;-61
2023/03/11 01:26:50;;;;;;;5.22;1.85;;;;;;;0.09;100.00;99835.50;686711;28;1220;-61
2023/03/11 01:27:10;;;;;;;5.03;1.75;;;;;;;0.07;100.00;99838.03;684298;28;1311;-60
2023/03/11 01:27:31;;;;;;;6.10;2.30;;;;;;;0.04;100.00;99839.66;685660;28;1338;-60
2023/03/11 01:27:52;;;;;;;5.80;2.05;;;;;;;0.05;100.00;99841.38;688014;28;1360;-59
2023/03/11 01:28:12;;;;;;;5.13;1.90;;;;;;;0.05;100.00;99839.69;690816;28;4427;-60
2023/03/11 01:28:32;;;;;;;6.10;2.10;;;;;;;0.11;100.00;99838.94;690590;28;1377;-61
2023/03/11 01:28:55;;;;;;;6.83;2.20;;;;;;;0.18;100.00;99840.88;693630;28;1400;-60
2023/03/11 01:29:16;;;;;;;6.65;2.10;;;;;;;0.17;100.00;99841.69;692452;28;1433;-60
2023/03/11 01:29:36;;;;;;;6.35;2.30;;;;;;;0.12;100.00;99838.13;692257;28;1259;-61
2023/03/11 01:29:57;;;;;;;7.23;2.03;;;;;;;0.17;100.00;99834.84;692601;28;1448;-60
2023/03/11 01:30:21;;;;;;;5.83;1.97;;;;;;;0.16;100.00;99842.50;690843;28;2016;-61
2023/03/11 01:30:42;;;;;;;6.07;1.83;;;;;;;0.14;100.00;99841.63;691179;28;1234;-61
2023/03/11 01:31:06;;;;;;;6.05;2.00;;;;;;;0.14;100.00;99841.63;691171;28;4381;-61
2023/03/11 01:31:26;;;;;;;5.53;2.20;;;;;;;0.08;100.00;99834.59;690481;28;1262;-61
2023/03/11 01:31:46;;;;;;;6.10;1.97;;;;;;;0.08;100.00;99841.47;687029;28;1486;-60
2023/03/11 01:32:07;;;;;;;7.70;2.25;;;;;;;0.08;100.00;99837.19;687542;28;1228;-61
2023/03/11 01:32:28;;;;;;;8.50;2.33;;;;;;;0.08;100.00;99836.31;693799;28;1282;-61
2023/03/11 01:32:49;;;;;;;8.33;2.20;;;;;;;0.07;100.00;99837.13;687780;28;1314;-60
2023/03/11 01:33:15;;;;;;;7.75;2.22;;;;;;;0.08;100.00;99841.47;690316;28;1374;-61
2023/03/11 01:33:36;;;;;;;8.40;2.05;;;;;;;0.06;100.00;99841.44;689112;28;1457;-61
2023/03/11 01:33:56;;;;;;;7.93;2.20;;;;;;;0.07;100.00;99844.84;690288;28;4616;-61
2023/03/11 01:34:16;;;;;;;7.23;1.97;;;;;;;0.13;100.00;99845.03;692199;28;1405;-61
2023/03/11 01:34:40;;;;;;;8.27;2.03;;;;;;;0.19;100.00;99842.59;693244;28;1389;-61
2023/03/11 01:35:00;;;;;;;6.15;2.00;;;;;;;0.23;100.00;99836.69;694440;28;1099;-60
2023/03/11 01:35:23;;;;;;;7.40;2.03;;;;;;;0.19;100.00;99840.00;696081;28;1130;-61
2023/03/11 01:35:44;;;;;;;6.95;2.17;;;;;;;0.17;100.00;99845.13;695937;28;1289;-60
2023/03/11 01:36:06;;;;;;;6.18;2.05;;;;;;;0.18;100.00;99838.28;696110;28;1230;-60
2023/03/11 01:36:26;;;;;;;7.97;2.33;;;;;;;0.19;100.00;99840.00;694173;28;1783;-60
2023/03/11 01:36:47;;;;;;;7.63;2.10;;;;;;;0.17;100.00;99839.97;689874;28;1212;-61
2023/03/11 01:37:07;;;;;;;7.23;1.83;;;;;;;0.15;100.00;99841.66;691083;28;4317;-60
2023/03/11 01:37:28;;;;;;;7.90;2.10;;;;;;;0.11;100.00;99849.22;693432;28;1357;-60
2023/03/11 01:37:49;;;;;;;8.38;2.20;;;;;;;0.15;100.00;99836.50;693115;28;1413;-60
2023/03/11 01:38:12;;;;;;;7.93;2.10;;;;;;;0.14;100.00;99841.63;688975;28;1361;-60
2023/03/11 01:38:32;;;;;;;7.75;2.10;;;;;;;0.16;100.00;99843.38;691062;28;1266;-61
2023/03/11 01:38:52;;;;;;;8.97;2.50;;;;;;;0.15;100.00;99840.78;688597;28;1468;-61
2023/03/11 01:39:13;;;;;;;7.57;2.43;;;;;;;0.15;100.00;99836.50;690460;28;1282;-60
2023/03/11 01:39:34;;;;;;;5.23;1.90;;;;;;;0.14;100.00;99846.75;686674;28;1370;-61
2023/03/11 01:39:54;;;;;;;6.57;1.92;;;;;;;0.16;100.00;99848.50;686428;28;4396;-61
2023/03/11 01:40:30;;;;;;;5.68;2.00;;;;;;;0.11;100.00;99842.41;689262;28;3389;-61
2023/03/11 01:40:52;;;;;;;5.07;2.13;;;;;;;0.08;100.00;99844.03;691948;28;1290;-60
2023/03/11 01:41:13;;;;;;;7.13;2.30;;;;;;;0.05;100.00;99842.25;695102;28;1341;-60
2023/03/11 01:41:34;;;;;;;8.25;2.30;;;;;;;0.07;100.00;99843.16;695111;28;1480;-62
2023/03/11 01:41:56;;;;;;;7.90;2.17;;;;;;;0.09;100.00;99845.78;690869;28;1995;-62
2023/03/11 01:42:16;;;;;;;7.68;2.20;;;;;;;0.05;100.00;99846.53;694155;28;1386;-62
2023/03/11 01:42:37;;;;;;;7.70;2.20;;;;;;;0.13;100.00;99845.88;689717;28;1412;-60
2023/03/11 01:42:59;;;;;;;7.40;1.95;;;;;;;0.10;100.00;99845.81;689258;28;4561;-62
2023/03/11 01:43:41;;;;;;;7.45;2.20;;;;;;;0.20;100.00;99844.31;683123;28;1265;-61
2023/03/11 01:44:40;;;;;;;7.13;1.92;;;;;;;0.11;100.00;99851.81;684321;28;1193;-61
2023/03/11 01:45:21;;;;;;;7.93;2.20;;;;;;;0.11;100.00;99846.66;694402;28;1375;-60